Terminal Aerodrome Forecast
Issued by NWS Goodland, KS

Home | Current Version | Previous Version | Text Only | Print | Product List | Glossary On
Versions: 1 2 3 4 5 6 7 8 9 10 11 12
000
FTUS43 KGLD 220534
TAFGLD
TAF
KGLD 220534Z 2206/2306 30010G20KT P6SM VCSH BKN060
      TEMPO 2207/2209 5SM -RASN BR SCT025 OVC050
     FM220900 32022G32KT P6SM -SHSN SCT060 BKN100
     FM230000 33025G35KT 4SM -SHSN BKN040=

USA.gov is the U.S. government's official web portal to all federal, state and local government web resources and services.